createdAt,value
2022-09-17T00:01:54.385Z,99449.13
2022-09-17T00:04:23.638Z,99444.88
2022-09-17T00:06:52.551Z,99456.50
2022-09-17T00:09:21.582Z,99441.66
2022-09-17T00:11:50.505Z,99451.47
2022-09-17T00:14:19.929Z,99443.50
2022-09-17T00:16:50.396Z,99453.25
2022-09-17T00:19:23.083Z,99452.41
2022-09-17T00:21:52.714Z,99449.69
2022-09-17T00:24:22.967Z,99454.94
2022-09-17T00:26:52.160Z,99454.75
2022-09-17T00:29:21.564Z,99449.31
2022-09-17T00:31:50.694Z,99450.97
2022-09-17T00:34:21.119Z,99454.44
2022-09-17T00:36:50.296Z,99447.16
2022-09-17T00:39:19.243Z,99448.97
2022-09-17T00:41:48.076Z,99453.22
2022-09-17T00:44:49.723Z,99446.16
2022-09-17T00:47:30.652Z,99458.16
2022-09-17T00:50:07.233Z,99463.38
2022-09-17T00:52:42.479Z,99442.28
2022-09-17T00:55:20.679Z,99470.06
2022-09-17T00:57:55.059Z,99415.91
2022-09-17T01:00:24.911Z,99482.59
2022-09-17T01:02:54.421Z,99477.09
2022-09-17T01:05:34.899Z,99397.84
2022-09-17T01:08:12.394Z,99483.31
2022-09-17T01:11:12.094Z,99463.38
2022-09-17T01:13:59.081Z,99390.25
2022-09-17T01:16:34.467Z,99489.06
2022-09-17T01:19:23.453Z,99489.13
2022-09-17T01:22:04.939Z,99482.28
2022-09-17T01:24:51.165Z,99335.84
2022-09-17T01:28:08.869Z,99490.69
2022-09-17T01:31:04.513Z,99490.00
2022-09-17T01:33:43.562Z,99486.88
2022-09-17T01:36:25.683Z,99497.59
2022-09-17T01:39:03.290Z,99494.06
2022-09-17T01:41:41.574Z,99493.13
2022-09-17T01:44:16.779Z,99495.13
2022-09-17T01:46:54.601Z,99461.50
2022-09-17T01:49:26.082Z,99501.41
2022-09-17T01:51:56.567Z,99500.19
2022-09-17T01:54:29.353Z,99502.81
2022-09-17T01:57:04.849Z,99507.72
2022-09-17T01:59:39.133Z,99509.72
2022-09-17T02:02:15.609Z,99512.22
2022-09-17T02:04:56.953Z,99493.94
2022-09-17T02:07:27.092Z,99507.91
2022-09-17T02:10:01.691Z,99512.38
2022-09-17T02:12:36.771Z,99468.34
2022-09-17T02:15:11.553Z,99508.03
2022-09-17T02:17:47.314Z,99499.25
2022-09-17T02:20:22.185Z,99500.13
2022-09-17T02:22:58.634Z,99458.66
2022-09-17T02:25:32.735Z,99508.72
2022-09-17T02:28:09.581Z,99498.03
2022-09-17T02:30:38.712Z,99501.41
2022-09-17T02:33:13.855Z,99501.53
2022-09-17T02:35:43.698Z,99502.47
2022-09-17T02:38:13.146Z,99494.28
2022-09-17T02:40:49.016Z,99509.66
2022-09-17T02:43:27.618Z,99500.06
2022-09-17T02:46:12.077Z,99510.75
2022-09-17T02:49:21.822Z,99503.69
2022-09-17T02:52:04.672Z,99500.97
2022-09-17T02:54:42.186Z,99497.66
2022-09-17T02:57:21.583Z,99494.22
2022-09-17T02:59:57.991Z,99491.56
2022-09-17T03:02:33.273Z,99494.16
2022-09-17T03:05:04.946Z,99494.16
2022-09-17T03:07:34.188Z,99496.81
2022-09-17T03:10:03.140Z,99496.16
2022-09-17T03:12:32.142Z,99493.22
2022-09-17T03:15:01.072Z,99501.31
2022-09-17T03:17:29.937Z,99499.69
2022-09-17T03:19:58.844Z,99496.72
2022-09-17T03:22:29.343Z,99498.66
2022-09-17T03:24:58.394Z,99496.81
2022-09-17T03:27:27.213Z,99503.03
2022-09-17T03:29:56.238Z,99515.25
2022-09-17T03:32:25.403Z,99507.28
2022-09-17T03:34:55.090Z,99514.25
2022-09-17T03:37:24.037Z,99510.16
2022-09-17T03:39:54.383Z,99512.72
2022-09-17T03:42:23.453Z,99513.75
2022-09-17T03:44:52.475Z,99520.75
2022-09-17T03:47:21.511Z,99527.97
2022-09-17T03:49:52.292Z,99530.69
2022-09-17T03:52:21.284Z,99523.50
2022-09-17T03:54:50.325Z,99533.97
2022-09-17T03:57:20.669Z,99531.38
2022-09-17T03:59:49.514Z,99531.38
2022-09-17T04:02:18.618Z,99518.84
2022-09-17T04:04:47.688Z,99528.66
2022-09-17T04:07:16.567Z,99533.97
2022-09-17T04:09:45.475Z,99529.69
2022-09-17T04:12:14.498Z,99526.38
2022-09-17T04:14:45.199Z,99528.94
2022-09-17T04:17:18.414Z,99538.56
2022-09-17T04:19:47.400Z,99543.88
2022-09-17T04:22:16.659Z,99542.22
2022-09-17T04:24:45.818Z,99540.63
2022-09-17T04:27:14.718Z,99546.97
2022-09-17T04:29:45.101Z,99537.97
2022-09-17T04:32:14.258Z,99535.59
2022-09-17T04:34:43.538Z,99531.09
2022-09-17T04:37:12.474Z,99533.75
2022-09-17T04:39:41.454Z,99547.22
2022-09-17T04:42:10.473Z,99540.00
2022-09-17T04:44:41.718Z,99546.34
2022-09-17T04:47:12.389Z,99552.47
2022-09-17T04:49:42.941Z,99548.94
2022-09-17T04:52:12.010Z,99548.00
2022-09-17T04:54:41.073Z,99548.88
2022-09-17T04:57:10.271Z,99550.53
2022-09-17T04:59:39.325Z,99553.19
2022-09-17T05:02:08.415Z,99547.88
2022-09-17T05:04:39.020Z,99559.63
2022-09-17T05:07:11.996Z,99557.78
2022-09-17T05:09:44.460Z,99555.84
2022-09-17T05:12:13.418Z,99570.09
2022-09-17T05:14:42.296Z,99563.88
2022-09-17T05:17:11.297Z,99561.72
2022-09-17T05:19:44.014Z,99565.38
2022-09-17T05:22:13.358Z,99570.50
2022-09-17T05:24:44.860Z,99560.69
2022-09-17T05:27:14.243Z,99567.63
2022-09-17T05:29:43.410Z,99564.09
2022-09-17T05:32:12.444Z,99568.69
2022-09-17T05:34:42.918Z,99569.28
2022-09-17T05:37:12.551Z,99565.69
2022-09-17T05:39:41.658Z,99557.72
2022-09-17T05:42:10.788Z,99560.94
2022-09-17T05:44:39.906Z,99565.03
2022-09-17T05:47:08.893Z,99561.91
2022-09-17T05:49:38.012Z,99566.81
2022-09-17T05:52:08.420Z,99571.06
2022-09-17T05:54:37.517Z,99575.50
2022-09-17T05:57:07.427Z,99588.19
2022-09-17T05:59:36.654Z,99583.22
2022-09-17T06:02:06.594Z,99585.34
2022-09-17T06:04:35.652Z,99583.63
2022-09-17T06:07:08.726Z,99589.66
2022-09-17T06:09:40.687Z,99584.34
2022-09-17T06:12:10.273Z,99528.88
2022-09-17T06:14:43.695Z,99589.47
2022-09-17T06:17:12.955Z,99586.94
2022-09-17T06:19:42.071Z,99592.31
2022-09-17T06:22:12.422Z,99597.66
2022-09-17T06:24:41.487Z,99588.28
2022-09-17T06:27:10.570Z,99605.84
2022-09-17T06:29:40.537Z,99597.78
2022-09-17T06:32:13.172Z,99599.59
2022-09-17T06:34:42.484Z,99591.38
2022-09-17T06:37:15.133Z,99594.56
2022-09-17T06:39:46.088Z,99598.09
2022-09-17T06:42:15.096Z,99593.91
2022-09-17T06:44:43.897Z,99597.41
2022-09-17T06:47:12.827Z,99591.19
2022-09-17T06:49:46.795Z,99591.38
2022-09-17T06:52:17.227Z,99594.50
2022-09-17T06:54:46.198Z,99586.69
2022-09-17T06:57:16.300Z,99595.53
2022-09-17T06:59:46.765Z,99601.47
2022-09-17T07:02:18.038Z,99596.47
2022-09-17T07:04:56.759Z,99599.94
2022-09-17T07:07:32.072Z,99598.81
2022-09-17T07:10:02.789Z,99597.53
2022-09-17T07:12:31.762Z,99597.03
2022-09-17T07:15:00.728Z,99600.03
2022-09-17T07:17:31.410Z,99595.41
2022-09-17T07:20:07.412Z,99591.97
2022-09-17T07:22:41.245Z,99593.63
2022-09-17T07:25:11.081Z,99593.94
2022-09-17T07:27:40.316Z,99594.25
2022-09-17T07:30:10.619Z,99587.19
2022-09-17T07:32:39.652Z,99590.75
2022-09-17T07:35:09.127Z,99580.66
2022-09-17T07:37:39.686Z,99595.31
2022-09-17T07:40:10.130Z,99598.22
2022-09-17T07:42:39.280Z,99603.75
2022-09-17T07:45:10.074Z,99606.56
2022-09-17T07:47:42.630Z,99612.19
2022-09-17T07:50:11.784Z,99607.66
2022-09-17T07:52:48.490Z,99580.78
2022-09-17T07:55:17.973Z,99619.72
2022-09-17T07:57:55.481Z,99607.69
2022-09-17T08:00:24.620Z,99610.63
2022-09-17T08:02:55.697Z,99607.19
2022-09-17T08:05:25.842Z,99608.53
2022-09-17T08:07:57.250Z,99344.84
2022-09-17T08:10:27.213Z,99609.72
2022-09-17T08:13:28.572Z,99609.25
2022-09-17T08:16:06.567Z,99619.34
2022-09-17T08:18:36.478Z,99622.38
2022-09-17T08:21:07.388Z,99629.97
2022-09-17T08:23:39.232Z,99628.41
2022-09-17T08:26:14.059Z,99628.03
2022-09-17T08:28:49.451Z,99629.06
2022-09-17T08:31:20.266Z,99631.81
2022-09-17T08:33:51.833Z,99637.75
2022-09-17T08:36:22.803Z,99627.97
2022-09-17T08:39:12.162Z,99635.06
2022-09-17T08:42:06.659Z,99631.06
2022-09-17T08:44:41.977Z,99627.16
2022-09-17T08:47:22.403Z,99557.75
2022-09-17T08:49:55.016Z,99634.41
2022-09-17T08:53:05.252Z,99645.16
2022-09-17T08:55:43.933Z,99627.31
2022-09-17T08:58:52.422Z,99650.56
2022-09-17T09:01:35.811Z,99652.50
2022-09-17T09:04:53.828Z,99550.69
2022-09-17T09:07:28.330Z,99657.84
2022-09-17T09:10:12.394Z,99661.38
2022-09-17T09:12:47.643Z,99658.69
2022-09-17T09:15:36.106Z,99658.78
2022-09-17T09:18:27.813Z,99673.75
2022-09-17T09:21:22.212Z,99671.00
2022-09-17T09:23:59.800Z,99665.69
2022-09-17T09:26:45.903Z,99624.03
2022-09-17T09:29:25.992Z,99669.00
2022-09-17T09:32:17.043Z,99521.22
2022-09-17T09:34:47.030Z,99684.84
2022-09-17T09:37:21.092Z,99693.16
2022-09-17T09:39:54.391Z,99682.41
2022-09-17T09:42:32.420Z,99679.69
2022-09-17T09:45:17.707Z,99681.00
2022-09-17T09:48:05.456Z,99612.19
2022-09-17T09:51:06.118Z,99686.38
2022-09-17T09:53:54.450Z,99683.25
2022-09-17T09:56:54.012Z,99584.59
2022-09-17T09:59:30.520Z,99691.91
2022-09-17T10:02:00.965Z,99698.59
2022-09-17T10:04:38.419Z,99699.53
2022-09-17T10:07:11.473Z,99693.13
2022-09-17T10:09:52.964Z,99699.75
2022-09-17T10:12:28.174Z,99709.28
2022-09-17T10:15:26.786Z,99712.06
2022-09-17T10:18:20.166Z,99716.13
2022-09-17T10:21:00.446Z,99723.75
2022-09-17T10:23:37.486Z,99716.06
2022-09-17T10:26:06.682Z,99720.19
2022-09-17T10:28:51.746Z,99722.09
2022-09-17T10:31:21.003Z,99709.53
2022-09-17T10:33:59.731Z,99696.59
2022-09-17T10:36:42.352Z,99703.47
2022-09-17T10:39:52.984Z,99690.84
2022-09-17T10:42:29.424Z,99690.00
2022-09-17T10:45:08.211Z,99682.16
2022-09-17T10:48:13.431Z,99696.69
2022-09-17T10:51:09.517Z,99696.03
2022-09-17T10:57:31.182Z,99713.22
2022-09-17T11:00:27.730Z,99710.09
2022-09-17T11:03:41.554Z,99713.13
2022-09-17T11:07:14.032Z,99711.25
2022-09-17T11:09:54.715Z,99666.44
2022-09-17T11:12:48.318Z,99706.53
2022-09-17T11:15:36.925Z,99698.41
2022-09-17T11:18:42.459Z,99699.00
2022-09-17T11:21:40.966Z,99702.31
2022-09-17T11:24:49.892Z,99693.00
2022-09-17T11:27:37.710Z,99671.97
2022-09-17T11:30:17.855Z,99688.34
2022-09-17T11:33:22.010Z,99694.75
2022-09-17T11:36:00.246Z,99665.78
2022-09-17T11:38:40.566Z,99696.47
2022-09-17T11:41:17.797Z,99661.94
2022-09-17T11:43:53.606Z,99693.34
2022-09-17T11:46:29.425Z,99674.50
2022-09-17T11:49:06.520Z,99678.19
2022-09-17T11:51:43.456Z,99564.53
2022-09-17T11:54:26.286Z,99669.34
2022-09-17T11:57:09.709Z,99638.09
2022-09-17T11:59:48.020Z,99679.59
2022-09-17T12:02:27.442Z,99675.84
2022-09-17T12:05:05.063Z,99677.75
2022-09-17T12:07:44.979Z,99668.94
2022-09-17T12:10:39.008Z,99692.44
2022-09-17T12:13:24.527Z,99661.53
2022-09-17T12:16:05.794Z,99662.75
2022-09-17T12:18:56.830Z,99693.00
2022-09-17T12:21:35.088Z,99686.88
2022-09-17T12:24:16.282Z,99643.03
2022-09-17T12:27:14.448Z,99693.13
2022-09-17T12:30:08.264Z,99691.81
2022-09-17T12:32:58.763Z,99698.00
2022-09-17T12:36:16.951Z,99631.81
2022-09-17T12:39:16.325Z,99659.56
2022-09-17T12:41:59.783Z,99687.44
2022-09-17T12:45:09.081Z,99684.25
2022-09-17T12:48:32.007Z,99684.94
2022-09-17T12:51:23.123Z,99689.41
2022-09-17T12:54:12.035Z,99642.19
2022-09-17T12:56:58.079Z,99640.94
2022-09-17T12:59:32.854Z,99675.13
2022-09-17T13:02:38.348Z,99665.91
2022-09-17T13:05:44.423Z,99660.28
2022-09-17T13:08:50.396Z,99654.44
2022-09-17T13:12:03.758Z,99671.03
2022-09-17T13:15:06.852Z,99650.03
2022-09-17T13:17:52.361Z,99664.00
2022-09-17T13:20:45.748Z,99616.22
2022-09-17T13:23:15.534Z,99666.44
2022-09-17T13:25:55.848Z,99682.00
2022-09-17T13:28:48.041Z,99676.06
2022-09-17T13:31:51.119Z,99629.03
2022-09-17T13:34:36.078Z,99672.28
2022-09-17T13:37:21.923Z,99679.34
2022-09-17T13:39:54.709Z,99674.41
2022-09-17T13:42:29.013Z,99673.72
2022-09-17T13:45:08.922Z,99667.75
2022-09-17T13:47:52.456Z,99651.38
2022-09-17T13:50:36.508Z,99680.63
2022-09-17T13:53:19.632Z,99673.25
2022-09-17T13:55:51.617Z,99680.50
2022-09-17T13:58:27.961Z,99626.84
2022-09-17T14:01:02.486Z,99634.16
2022-09-17T14:04:06.834Z,99640.38
2022-09-17T14:06:53.898Z,99669.22
2022-09-17T14:09:39.220Z,99665.84
2022-09-17T14:12:54.871Z,99657.81
2022-09-17T14:16:05.650Z,99660.22
2022-09-17T14:19:01.412Z,99622.81
2022-09-17T14:21:35.421Z,99651.91
2022-09-17T14:24:22.200Z,99530.47
2022-09-17T14:27:08.272Z,99649.41
2022-09-17T14:30:13.067Z,99607.53
2022-09-17T14:32:57.713Z,99362.72
2022-09-17T14:35:35.180Z,99619.13
2022-09-17T14:38:12.408Z,99627.91
2022-09-17T14:40:47.212Z,99626.97
2022-09-17T14:43:28.697Z,99567.66
2022-09-17T14:45:59.470Z,99632.59
2022-09-17T14:48:37.325Z,99629.63
2022-09-17T14:51:29.661Z,99636.41
2022-09-17T14:54:25.043Z,99626.19
2022-09-17T14:57:12.493Z,99614.28
2022-09-17T15:00:01.644Z,99577.50
2022-09-17T15:02:37.169Z,99619.25
2022-09-17T15:05:31.535Z,99619.00
2022-09-17T15:08:09.910Z,99634.69
2022-09-17T15:10:49.713Z,99606.03
2022-09-17T15:13:22.904Z,99642.56
2022-09-17T15:16:03.174Z,99576.94
2022-09-17T15:18:39.329Z,99650.22
2022-09-17T15:21:31.687Z,99601.03
2022-09-17T15:24:12.811Z,99629.81
2022-09-17T15:27:30.681Z,99629.31
2022-09-17T15:30:05.460Z,99611.28
2022-09-17T15:32:36.232Z,99642.22
2022-09-17T15:35:30.307Z,99634.84
2022-09-17T15:41:22.198Z,99639.47
2022-09-17T15:43:54.732Z,99629.94
2022-09-17T15:46:35.295Z,99500.75
2022-09-17T15:49:30.802Z,99625.19
2022-09-17T15:52:40.778Z,99626.47
2022-09-17T15:55:36.023Z,99626.28
2022-09-17T15:58:20.740Z,99630.88
2022-09-17T16:01:00.973Z,99631.63
2022-09-17T16:04:19.131Z,99618.69
2022-09-17T16:07:18.631Z,99631.59
2022-09-17T16:09:55.244Z,99627.50
2022-09-17T16:12:29.093Z,99628.91
2022-09-17T16:15:00.874Z,99630.28
2022-09-17T16:17:44.960Z,99605.06
2022-09-17T16:20:22.207Z,99632.94
2022-09-17T16:22:52.308Z,99644.38
2022-09-17T16:25:25.035Z,99637.25
2022-09-17T16:27:57.831Z,99649.63
2022-09-17T16:30:27.612Z,99642.09
2022-09-17T16:32:56.947Z,99657.94
2022-09-17T16:35:28.516Z,99655.38
2022-09-17T16:43:27.909Z,99669.22
2022-09-17T16:46:46.469Z,99658.06
2022-09-17T16:52:48.093Z,99656.19
2022-09-17T16:56:03.806Z,99668.25
2022-09-17T16:58:32.872Z,99659.75
2022-09-17T17:01:11.951Z,99661.19
2022-09-17T17:03:41.407Z,99652.47
2022-09-17T17:06:17.589Z,99653.16
2022-09-17T17:08:48.301Z,99659.97
2022-09-17T17:11:17.704Z,99666.09
2022-09-17T17:13:47.545Z,99663.94
2022-09-17T17:16:17.689Z,99668.13
2022-09-17T17:18:47.105Z,99673.69
2022-09-17T17:21:16.753Z,99681.31
2022-09-17T17:23:47.988Z,99681.75
2022-09-17T17:26:17.513Z,99686.41
2022-09-17T17:28:46.754Z,99686.16
2022-09-17T17:31:15.446Z,99633.63
2022-09-17T17:33:45.164Z,99682.84
2022-09-17T17:36:14.512Z,99683.59
2022-09-17T17:38:45.703Z,99680.06
2022-09-17T17:41:18.230Z,99678.41
2022-09-17T17:43:47.422Z,99685.50
2022-09-17T17:46:39.864Z,99679.97
2022-09-17T17:49:11.215Z,99690.19
2022-09-17T17:51:52.470Z,99684.59
2022-09-17T17:54:23.682Z,99687.03
2022-09-17T18:00:16.468Z,99688.19
2022-09-17T18:02:57.674Z,99684.69
2022-09-17T18:05:29.691Z,99698.31
2022-09-17T18:07:58.772Z,99701.94
2022-09-17T18:11:12.277Z,99697.66
2022-09-17T18:13:51.863Z,99707.78
2022-09-17T18:16:50.146Z,99715.06
2022-09-17T18:19:44.437Z,99711.88
2022-09-17T18:22:15.623Z,99717.84
2022-09-17T18:24:45.264Z,99713.00
2022-09-17T18:27:16.315Z,99715.06
2022-09-17T18:29:48.925Z,99709.25
2022-09-17T18:32:17.966Z,99702.22
2022-09-17T18:34:47.452Z,99703.38
2022-09-17T18:37:42.863Z,99700.63
2022-09-17T18:40:48.814Z,99706.72
2022-09-17T18:43:30.672Z,99715.47
2022-09-17T18:46:01.347Z,99717.28
2022-09-17T18:48:36.368Z,99729.81
2022-09-17T18:51:16.885Z,99725.09
2022-09-17T18:53:51.334Z,99723.31
2022-09-17T18:56:27.005Z,99723.91
2022-09-17T18:58:57.881Z,99712.47
2022-09-17T19:01:46.469Z,99715.78
2022-09-17T19:04:15.531Z,99722.63
2022-09-17T19:06:44.495Z,99720.53
2022-09-17T19:09:16.236Z,99731.53
2022-09-17T19:11:45.110Z,99731.59
2022-09-17T19:14:13.986Z,99716.47
2022-09-17T19:16:43.403Z,99725.59
2022-09-17T19:19:14.064Z,99727.16
2022-09-17T19:21:44.902Z,99723.50
2022-09-17T19:24:14.215Z,99728.69
2022-09-17T19:26:45.622Z,99665.38
2022-09-17T19:29:16.615Z,99719.31
2022-09-17T19:31:45.607Z,99713.28
2022-09-17T19:34:19.363Z,99708.03
2022-09-17T19:36:48.744Z,99704.50
2022-09-17T19:39:17.988Z,99697.50
2022-09-17T19:41:47.122Z,99704.59
2022-09-17T19:44:16.406Z,99694.97
2022-09-17T19:46:46.932Z,99696.84
2022-09-17T19:49:17.477Z,99690.69
2022-09-17T19:51:46.899Z,99683.66
2022-09-17T19:54:16.039Z,99688.97
2022-09-17T19:56:47.648Z,99638.97
2022-09-17T19:59:19.520Z,99688.03
2022-09-17T20:01:54.040Z,99680.91
2022-09-17T20:04:24.779Z,99682.69
2022-09-17T20:06:53.816Z,99675.66
2022-09-17T20:09:25.351Z,99671.22
2022-09-17T20:11:56.762Z,99673.81
2022-09-17T20:14:27.789Z,99670.31
2022-09-17T20:16:56.771Z,99671.22
2022-09-17T20:19:30.069Z,99668.53
2022-09-17T20:22:05.560Z,99662.22
2022-09-17T20:24:35.168Z,99660.47
2022-09-17T20:27:04.354Z,99658.75
2022-09-17T20:29:33.485Z,99657.88
2022-09-17T20:32:02.739Z,99652.75
2022-09-17T20:34:33.892Z,99651.88
2022-09-17T20:37:13.225Z,99649.22
2022-09-17T20:39:43.023Z,99658.84
2022-09-17T20:42:15.336Z,99654.31
2022-09-17T20:44:44.663Z,99649.88
2022-09-17T20:47:15.778Z,99656.81
2022-09-17T20:49:46.461Z,99654.06
2022-09-17T20:52:20.412Z,99662.94
2022-09-17T20:54:50.020Z,99664.09
2022-09-17T20:57:18.933Z,99670.66
2022-09-17T20:59:53.332Z,99663.88
2022-09-17T21:02:22.688Z,99674.72
2022-09-17T21:04:53.810Z,99667.69
2022-09-17T21:07:22.785Z,99665.00
2022-09-17T21:09:51.692Z,99668.50
2022-09-17T21:12:27.485Z,99671.06
2022-09-17T21:14:56.882Z,99660.69
2022-09-17T21:17:25.724Z,99663.72
2022-09-17T21:19:56.125Z,99673.78
2022-09-17T21:22:25.342Z,99660.56
2022-09-17T21:24:54.590Z,99662.41
2022-09-17T21:27:23.929Z,99661.59
2022-09-17T21:29:52.875Z,99646.63
2022-09-17T21:32:22.228Z,99652.84
2022-09-17T21:34:56.239Z,99645.81
2022-09-17T21:37:38.994Z,99643.06
2022-09-17T21:40:09.555Z,99645.59
2022-09-17T21:42:42.089Z,99643.88
2022-09-17T21:45:12.103Z,99642.94
2022-09-17T21:47:47.085Z,99645.53
2022-09-17T21:50:41.118Z,99640.28
2022-09-17T21:53:38.785Z,99642.25
2022-09-17T21:56:23.084Z,99651.31
2022-09-17T21:58:55.367Z,99643.66
2022-09-17T22:01:27.508Z,99650.72
2022-09-17T22:03:57.993Z,99649.88
2022-09-17T22:06:29.368Z,99649.97
2022-09-17T22:09:02.154Z,99646.44
2022-09-17T22:11:33.131Z,99642.59
2022-09-17T22:14:09.021Z,99649.00
2022-09-17T22:16:40.702Z,99645.66
2022-09-17T22:19:11.215Z,99644.34
2022-09-17T22:21:42.867Z,99647.03
2022-09-17T22:24:13.737Z,99652.38
2022-09-17T22:26:45.208Z,99642.72
2022-09-17T22:29:16.425Z,99643.75
2022-09-17T22:31:46.680Z,99648.22
2022-09-17T22:34:18.089Z,99637.66
2022-09-17T22:36:47.239Z,99637.75
2022-09-17T22:39:19.184Z,99637.75
2022-09-17T22:41:49.412Z,99637.13
2022-09-17T22:44:20.006Z,99643.31
2022-09-17T22:46:51.468Z,99642.47
2022-09-17T22:49:20.834Z,99645.34
2022-09-17T22:51:49.723Z,99648.91
2022-09-17T22:54:20.653Z,99645.50
2022-09-17T22:56:50.213Z,99648.91
2022-09-17T22:59:19.526Z,99643.75
2022-09-17T23:01:48.686Z,99641.13
2022-09-17T23:04:17.636Z,99635.84
2022-09-17T23:06:46.688Z,99636.75
2022-09-17T23:09:16.245Z,99634.03
2022-09-17T23:11:46.607Z,99629.84
2022-09-17T23:14:19.541Z,99626.47
2022-09-17T23:16:49.645Z,99622.91
2022-09-17T23:19:20.002Z,99619.44
2022-09-17T23:21:49.213Z,99621.16
2022-09-17T23:24:21.129Z,99620.94
2022-09-17T23:26:51.809Z,99613.88
2022-09-17T23:29:20.978Z,99614.69
2022-09-17T23:31:50.157Z,99617.28
2022-09-17T23:34:19.206Z,99625.13
2022-09-17T23:36:48.720Z,99618.00
2022-09-17T23:39:18.217Z,99622.44
2022-09-17T23:41:48.342Z,99624.13
2022-09-17T23:44:19.254Z,99625.91
2022-09-17T23:46:48.823Z,99625.91
2022-09-17T23:49:17.926Z,99621.44
2022-09-17T23:51:46.955Z,99619.66
2022-09-17T23:54:16.309Z,99615.13
2022-09-17T23:56:45.400Z,99609.78
2022-09-17T23:59:14.377Z,99614.31
